Time;durP1;ratioP1;P1;durP2;ratioP2;P2;SDS_P1;SDS_P2;PMS_P1;PMS_P2;Temp;Humidity;BMP_temperature;BMP_pressure;BME280_temperature;BME280_humidity;BME280_pressure;Samples;Min_cycle;Max_cycle;Signal;HPM_P1;HPM_P2
2021/12/03 00:01:24;;;;;;;12.50;4.40;;;1.80;99.90;;;;;;4980129;28;20640;-71
2021/12/03 00:03:51;;;;;;;19.20;3.92;;;1.80;99.90;;;;;;5005278;28;20062;-71
2021/12/03 00:06:19;;;;;;;12.70;4.30;;;1.80;99.90;;;;;;4987146;28;20046;-72
2021/12/03 00:08:46;;;;;;;7.68;3.25;;;1.90;99.90;;;;;;4980701;28;20375;-71
2021/12/03 00:11:14;;;;;;;12.63;3.72;;;1.80;99.90;;;;;;4985378;28;20055;-71
2021/12/03 00:13:42;;;;;;;6.55;3.03;;;1.90;99.90;;;;;;4978123;28;20050;-72
2021/12/03 00:16:10;;;;;;;7.28;3.00;;;2.00;99.90;;;;;;4984513;28;20054;-72
2021/12/03 00:18:38;;;;;;;8.10;3.13;;;2.10;99.90;;;;;;4990262;28;20050;-72
2021/12/03 00:21:07;;;;;;;8.93;3.20;;;2.20;99.90;;;;;;4986837;28;20104;-72
2021/12/03 00:23:35;;;;;;;9.95;3.67;;;2.20;99.90;;;;;;4995675;28;20503;-72
2021/12/03 00:26:05;;;;;;;11.32;3.63;;;2.30;99.90;;;;;;4994286;28;20051;-72
2021/12/03 00:28:32;;;;;;;9.88;3.05;;;2.30;99.90;;;;;;4989080;28;20042;-72
2021/12/03 00:31:00;;;;;;;10.70;3.33;;;2.30;99.90;;;;;;5009430;28;20634;-72
2021/12/03 00:33:30;;;;;;;7.07;2.55;;;2.30;99.90;;;;;;4995234;28;20466;-72
2021/12/03 00:36:03;;;;;;;9.45;3.17;;;2.40;99.90;;;;;;4991816;28;20053;-72
2021/12/03 00:38:35;;;;;;;14.73;3.53;;;2.50;99.90;;;;;;4994175;28;20090;-72
2021/12/03 00:41:08;;;;;;;9.32;3.13;;;2.50;99.90;;;;;;4986984;28;20537;-72
2021/12/03 00:43:40;;;;;;;11.45;3.55;;;2.60;99.90;;;;;;4993700;28;20055;-72
2021/12/03 00:46:09;;;;;;;10.50;3.05;;;2.70;99.90;;;;;;4992275;28;20070;-72
2021/12/03 00:48:37;;;;;;;11.55;3.20;;;2.70;99.90;;;;;;4994140;28;20721;-72
2021/12/03 00:51:07;;;;;;;8.20;3.33;;;2.80;99.90;;;;;;4987895;28;20097;-72
2021/12/03 00:53:35;;;;;;;7.00;2.90;;;2.80;99.90;;;;;;4978663;28;20046;-72
2021/12/03 00:56:03;;;;;;;10.43;3.20;;;2.90;99.90;;;;;;4974822;28;20050;-72
2021/12/03 00:58:30;;;;;;;11.80;3.20;;;3.00;99.90;;;;;;4977501;28;20046;-72
2021/12/03 01:00:57;;;;;;;8.90;3.13;;;3.10;99.90;;;;;;4994581;28;20047;-72
2021/12/03 01:03:25;;;;;;;7.25;2.40;;;3.10;99.90;;;;;;4993909;28;20057;-72
2021/12/03 01:05:52;;;;;;;7.22;3.50;;;3.30;99.90;;;;;;4986015;28;20101;-71
2021/12/03 01:08:19;;;;;;;7.30;2.00;;;3.30;99.90;;;;;;4993846;28;20046;-72
2021/12/03 01:10:47;;;;;;;7.10;2.20;;;3.40;99.90;;;;;;4990065;28;20046;-72
2021/12/03 01:13:14;;;;;;;6.45;2.22;;;3.60;99.90;;;;;;4990203;28;20506;-72
2021/12/03 01:15:42;;;;;;;5.60;1.60;;;3.70;99.90;;;;;;4992353;28;20101;-72
2021/12/03 01:18:11;;;;;;;5.20;2.30;;;3.80;99.90;;;;;;4995042;28;20043;-72
2021/12/03 01:20:39;;;;;;;5.63;1.70;;;3.80;99.90;;;;;;4995138;28;20050;-71
2021/12/03 01:23:08;;;;;;;4.32;1.92;;;3.90;99.90;;;;;;4993181;28;20058;-72
2021/12/03 01:25:35;;;;;;;6.63;2.30;;;3.90;99.90;;;;;;4981612;28;20097;-72
2021/12/03 01:28:02;;;;;;;5.68;1.70;;;3.90;99.90;;;;;;4990110;28;20055;-72
2021/12/03 01:30:31;;;;;;;12.05;1.90;;;4.00;99.90;;;;;;4991932;28;20054;-72
2021/12/03 01:33:00;;;;;;;5.93;1.55;;;4.10;99.90;;;;;;4989559;28;20459;-72
2021/12/03 01:35:28;;;;;;;3.97;1.70;;;4.10;99.90;;;;;;4989542;28;20043;-72
2021/12/03 01:37:55;;;;;;;5.95;2.40;;;4.20;99.90;;;;;;4992956;28;20053;-72
2021/12/03 01:40:25;;;;;;;7.45;1.98;;;4.20;99.90;;;;;;4993993;28;20047;-72
2021/12/03 01:42:53;;;;;;;6.07;2.33;;;4.20;99.90;;;;;;4993005;28;20422;-73
2021/12/03 01:45:26;;;;;;;4.78;2.03;;;4.10;99.90;;;;;;4986958;28;20050;-72
2021/12/03 01:47:54;;;;;;;10.13;2.58;;;4.10;99.90;;;;;;4989792;28;20113;-72
2021/12/03 01:50:32;;;;;;;7.95;2.10;;;4.10;99.90;;;;;;4986733;28;20049;-71
2021/12/03 01:52:59;;;;;;;9.68;2.10;;;4.20;99.90;;;;;;4974500;28;20160;-72
2021/12/03 01:55:26;;;;;;;9.43;2.35;;;4.20;99.90;;;;;;4989345;28;20054;-72
2021/12/03 01:57:53;;;;;;;6.78;2.22;;;4.20;99.90;;;;;;4982949;28;20101;-72
2021/12/03 02:00:44;;;;;;;11.23;3.47;;;4.10;99.90;;;;;;4988937;28;20054;-72
2021/12/03 02:03:14;;;;;;;7.80;2.53;;;4.10;99.90;;;;;;4991392;28;20054;-73
2021/12/03 02:05:43;;;;;;;7.20;2.78;;;4.00;99.90;;;;;;4989055;28;20101;-72
2021/12/03 02:08:10;;;;;;;33.75;3.25;;;4.00;99.90;;;;;;4997482;28;20680;-72
2021/12/03 02:10:39;;;;;;;6.68;2.58;;;4.00;99.90;;;;;;4991600;28;20093;-72
2021/12/03 02:13:06;;;;;;;6.40;2.83;;;4.00;99.90;;;;;;4991361;28;20526;-72
2021/12/03 02:15:33;;;;;;;9.50;3.05;;;4.00;99.90;;;;;;4987259;28;20047;-72
2021/12/03 02:18:00;;;;;;;10.23;2.88;;;4.00;99.90;;;;;;4992143;28;20078;-72
2021/12/03 02:20:27;;;;;;;11.13;2.83;;;4.00;99.90;;;;;;4992343;28;20462;-73
2021/12/03 02:22:54;;;;;;;12.02;2.92;;;4.00;99.90;;;;;;4992234;28;20505;-72
2021/12/03 02:25:23;;;;;;;14.02;3.30;;;4.00;99.90;;;;;;4990444;28;20100;-73
2021/12/03 02:27:53;;;;;;;8.20;3.05;;;4.00;99.90;;;;;;4991928;28;20109;-72
2021/12/03 02:30:21;;;;;;;10.73;3.00;;;4.00;99.90;;;;;;4992286;28;20058;-72
2021/12/03 02:32:50;;;;;;;10.30;3.08;;;4.00;99.90;;;;;;4986382;28;20505;-71
2021/12/03 02:35:18;;;;;;;11.90;2.90;;;4.00;99.90;;;;;;4976321;28;20100;-72
2021/12/03 02:37:45;;;;;;;14.25;3.20;;;4.00;99.90;;;;;;4984793;28;20137;-71
2021/12/03 02:40:15;;;;;;;6.97;2.58;;;4.00;99.90;;;;;;4992415;28;20513;-72
2021/12/03 02:42:42;;;;;;;11.88;3.67;;;4.10;99.90;;;;;;4990630;28;20096;-72
2021/12/03 02:45:11;;;;;;;10.20;3.20;;;4.10;99.90;;;;;;4992008;28;20109;-72
2021/12/03 02:47:39;;;;;;;14.80;2.90;;;4.10;99.90;;;;;;4993290;28;20108;-71
2021/12/03 02:50:07;;;;;;;12.73;3.55;;;4.00;99.90;;;;;;4992687;28;20050;-72
2021/12/03 02:52:34;;;;;;;10.57;3.28;;;4.00;99.90;;;;;;4982169;28;20447;-71
2021/12/03 02:55:03;;;;;;;7.93;3.50;;;4.00;99.90;;;;;;5004883;28;20404;-72
2021/12/03 02:57:30;;;;;;;9.90;3.28;;;3.90;99.90;;;;;;4992020;28;20073;-72
2021/12/03 02:59:57;;;;;;;15.85;3.78;;;3.90;99.90;;;;;;4989636;28;20050;-72
2021/12/03 03:02:24;;;;;;;10.23;3.70;;;3.90;99.90;;;;;;4988931;28;20046;-72
2021/12/03 03:04:52;;;;;;;12.77;4.57;;;3.80;99.90;;;;;;4988596;28;20049;-71
2021/12/03 03:07:20;;;;;;;10.57;3.45;;;3.80;99.90;;;;;;4992455;28;20047;-72
2021/12/03 03:09:47;;;;;;;15.60;3.75;;;3.80;99.90;;;;;;4992045;28;20062;-72
2021/12/03 03:12:14;;;;;;;13.00;3.33;;;3.80;99.90;;;;;;4991876;28;20046;-72
2021/12/03 03:14:57;;;;;;;11.32;3.85;;;3.70;99.90;;;;;;4979879;28;20047;-72
2021/12/03 03:17:26;;;;;;;12.55;3.45;;;3.70;99.90;;;;;;4988437;28;20610;-71
2021/12/03 03:19:55;;;;;;;16.55;4.00;;;3.70;99.90;;;;;;4988157;28;20502;-72
2021/12/03 03:22:23;;;;;;;16.08;4.10;;;3.70;99.90;;;;;;4988874;28;20059;-70
2021/12/03 03:24:52;;;;;;;17.92;3.28;;;3.70;99.90;;;;;;4977693;28;20046;-73
2021/12/03 03:27:20;;;;;;;16.17;4.05;;;3.80;99.90;;;;;;4992074;28;20465;-72
2021/12/03 03:29:48;;;;;;;12.20;3.10;;;4.10;99.90;;;;;;4991958;28;20050;-72
2021/12/03 03:32:16;;;;;;;9.63;3.35;;;4.30;99.90;;;;;;4989454;28;20510;-74
2021/12/03 03:34:43;;;;;;;15.90;3.80;;;4.50;99.90;;;;;;4987579;28;20863;-72
2021/12/03 03:37:10;;;;;;;14.27;3.20;;;4.50;99.90;;;;;;4983898;28;20101;-72
2021/12/03 03:39:37;;;;;;;13.00;3.00;;;4.60;99.90;;;;;;4988188;28;20050;-73
2021/12/03 03:42:05;;;;;;;11.68;3.17;;;4.50;99.90;;;;;;4988202;28;20098;-72
2021/12/03 03:44:32;;;;;;;12.25;3.22;;;4.60;99.90;;;;;;4997230;28;20470;-72
2021/12/03 03:47:00;;;;;;;14.02;3.63;;;4.60;99.90;;;;;;4991281;28;20062;-71
2021/12/03 03:49:28;;;;;;;9.45;3.58;;;4.60;99.90;;;;;;4989997;28;20050;-72
2021/12/03 03:51:56;;;;;;;14.60;4.30;;;4.60;99.90;;;;;;4991431;28;20050;-72
2021/12/03 03:54:23;;;;;;;10.23;2.83;;;4.60;99.90;;;;;;4991584;28;20097;-72
2021/12/03 03:56:50;;;;;;;12.50;3.03;;;4.60;99.90;;;;;;4989535;28;20047;-72
2021/12/03 03:59:17;;;;;;;6.88;3.10;;;4.60;99.90;;;;;;4994378;28;20046;-75
2021/12/03 04:01:46;;;;;;;11.70;3.00;;;4.60;99.90;;;;;;4990912;28;20054;-71
2021/12/03 04:04:15;;;;;;;11.52;2.95;;;4.60;99.90;;;;;;4988607;28;20629;-71
2021/12/03 04:06:42;;;;;;;8.52;2.97;;;4.60;99.90;;;;;;4990960;28;20113;-72
2021/12/03 04:09:10;;;;;;;9.85;2.72;;;4.60;99.90;;;;;;4989670;28;20050;-72
2021/12/03 04:11:37;;;;;;;18.60;3.28;;;4.60;99.90;;;;;;4991135;28;20054;-72
2021/12/03 04:14:08;;;;;;;11.52;3.20;;;4.60;99.90;;;;;;4989539;28;20051;-72
2021/12/03 04:16:35;;;;;;;9.73;3.40;;;4.60;99.90;;;;;;4991075;28;20046;-73
2021/12/03 04:19:02;;;;;;;14.88;3.22;;;4.60;99.90;;;;;;4989522;28;20043;-72
2021/12/03 04:21:29;;;;;;;9.40;3.00;;;4.60;99.90;;;;;;4991383;28;20622;-71
2021/12/03 04:23:56;;;;;;;10.32;2.92;;;4.50;99.90;;;;;;4992638;28;20053;-72
2021/12/03 04:26:23;;;;;;;13.98;3.60;;;4.60;99.90;;;;;;4991209;28;20062;-73
2021/12/03 04:28:50;;;;;;;11.40;2.83;;;4.50;99.90;;;;;;4988976;28;20113;-72
2021/12/03 04:31:17;;;;;;;9.02;2.88;;;4.60;99.90;;;;;;4972909;28;20519;-72
2021/12/03 04:33:44;;;;;;;15.02;2.88;;;4.50;99.90;;;;;;4974107;28;20074;-72
2021/12/03 04:36:11;;;;;;;11.48;2.67;;;4.60;99.90;;;;;;4993807;28;20051;-74
2021/12/03 04:38:37;;;;;;;13.07;3.20;;;4.60;99.90;;;;;;5007629;28;20082;-73
2021/12/03 04:41:04;;;;;;;16.77;3.30;;;4.60;99.90;;;;;;4982230;28;20109;-72
2021/12/03 04:43:32;;;;;;;8.57;3.00;;;4.70;99.90;;;;;;4994061;28;20050;-72
2021/12/03 04:45:58;;;;;;;12.45;3.40;;;4.70;99.90;;;;;;4992976;28;20073;-72
2021/12/03 04:48:26;;;;;;;13.00;3.22;;;4.60;99.90;;;;;;4991866;28;20466;-73
2021/12/03 04:50:53;;;;;;;15.45;4.03;;;4.60;99.90;;;;;;4994503;28;20054;-72
2021/12/03 04:53:20;;;;;;;17.10;3.40;;;4.50;99.90;;;;;;4991168;28;20522;-72
2021/12/03 04:55:49;;;;;;;12.20;3.22;;;4.50;99.90;;;;;;4994232;28;20043;-73
2021/12/03 04:58:17;;;;;;;13.45;4.15;;;4.50;99.90;;;;;;4993429;28;20042;-72
2021/12/03 05:00:54;;;;;;;10.10;4.32;;;4.40;99.90;;;;;;4994181;28;20051;-72
2021/12/03 05:03:24;;;;;;;;;;;4.40;99.90;;;;;;4994242;28;20768;-72
2021/12/03 05:05:56;;;;;;;10.48;4.07;;;4.40;99.90;;;;;;4992630;28;19980;-72
2021/12/03 05:08:24;;;;;;;13.18;4.70;;;4.40;99.90;;;;;;4994087;28;20062;-71
2021/12/03 05:10:53;;;;;;;13.73;3.13;;;4.40;99.90;;;;;;4992544;28;20077;-72
2021/12/03 05:13:26;;;;;;;18.48;3.38;;;4.50;99.90;;;;;;4994333;28;20077;-72
2021/12/03 05:15:53;;;;;;;9.57;2.78;;;4.60;99.90;;;;;;4993874;28;20047;-72
2021/12/03 05:18:23;;;;;;;12.02;3.47;;;4.70;99.90;;;;;;4993984;28;20097;-72
2021/12/03 05:20:53;;;;;;;15.23;2.65;;;4.80;99.90;;;;;;4992488;28;20064;-72
2021/12/03 05:23:22;;;;;;;15.25;3.45;;;4.80;99.90;;;;;;4990661;28;20538;-73
2021/12/03 05:25:49;;;;;;;14.93;3.38;;;4.80;99.90;;;;;;4990340;28;20051;-72
2021/12/03 05:28:17;;;;;;;15.02;3.80;;;4.90;99.90;;;;;;4994140;28;20426;-73
2021/12/03 05:30:48;;;;;;;9.77;3.55;;;4.90;99.90;;;;;;4975504;28;20055;-72
2021/12/03 05:33:15;;;;;;;10.60;3.47;;;4.90;99.90;;;;;;4990561;28;20110;-72
2021/12/03 05:35:43;;;;;;;12.07;3.78;;;4.90;99.90;;;;;;4992317;28;20039;-72
2021/12/03 05:38:10;;;;;;;12.70;3.90;;;4.90;99.90;;;;;;4990265;28;20051;-71
2021/12/03 05:40:37;;;;;;;12.70;3.72;;;4.90;99.90;;;;;;4990282;28;20047;-72
2021/12/03 05:43:04;;;;;;;14.30;4.10;;;4.80;99.90;;;;;;4990428;28;20066;-71
2021/12/03 05:45:34;;;;;;;17.65;4.78;;;4.90;99.90;;;;;;5001325;28;20510;-72
2021/12/03 05:48:02;;;;;;;19.30;4.20;;;4.80;99.90;;;;;;4993145;28;20124;-72
2021/12/03 05:50:29;;;;;;;12.88;4.60;;;4.80;99.90;;;;;;4990912;28;20454;-73
2021/12/03 05:52:57;;;;;;;9.75;4.07;;;4.80;99.90;;;;;;4998986;28;20054;-72
2021/12/03 05:55:25;;;;;;;11.10;4.35;;;4.80;99.90;;;;;;4993548;28;20053;-73
2021/12/03 05:57:52;;;;;;;14.50;4.45;;;4.80;99.90;;;;;;4993335;28;20470;-72
2021/12/03 06:00:41;;;;;;;14.10;4.57;;;4.80;99.90;;;;;;4991194;28;20054;-73
2021/12/03 06:03:08;;;;;;;13.48;4.57;;;4.80;99.90;;;;;;4981311;28;20097;-71
2021/12/03 06:05:36;;;;;;;16.95;4.50;;;4.80;99.90;;;;;;4984607;28;20769;-72
2021/12/03 06:08:03;;;;;;;12.00;4.20;;;4.80;99.90;;;;;;4993202;28;20058;-72
2021/12/03 06:10:30;;;;;;;8.93;3.72;;;4.80;99.90;;;;;;4991402;28;20054;-72
2021/12/03 06:12:58;;;;;;;11.02;4.00;;;4.80;99.90;;;;;;4992317;28;20054;-73
2021/12/03 06:15:25;;;;;;;9.90;4.95;;;4.80;99.90;;;;;;4988751;28;20042;-75
2021/12/03 06:17:53;;;;;;;10.68;5.05;;;4.80;99.90;;;;;;5001423;28;20519;-76
2021/12/03 06:20:20;;;;;;;15.15;4.68;;;4.80;99.90;;;;;;4990932;28;20100;-73
2021/12/03 06:22:48;;;;;;;9.88;4.03;;;4.80;99.90;;;;;;4987195;28;20455;-72
2021/12/03 06:25:18;;;;;;;13.15;4.78;;;4.80;99.90;;;;;;4992837;28;20072;-72
2021/12/03 06:27:46;;;;;;;12.73;3.65;;;4.80;99.90;;;;;;4989407;28;20054;-73
2021/12/03 06:30:16;;;;;;;10.85;4.57;;;4.80;99.90;;;;;;4988953;28;20058;-72
2021/12/03 06:32:44;;;;;;;13.38;4.70;;;4.80;99.90;;;;;;4979769;28;20554;-72
2021/12/03 06:35:13;;;;;;;11.40;4.25;;;4.80;99.90;;;;;;4992747;28;20042;-73
2021/12/03 06:37:41;;;;;;;10.70;4.72;;;4.80;99.90;;;;;;4989932;28;20573;-71
2021/12/03 06:40:12;;;;;;;13.98;5.00;;;4.80;99.90;;;;;;4984816;28;20100;-72
2021/12/03 06:42:39;;;;;;;11.25;5.00;;;4.80;99.90;;;;;;4993569;28;20046;-72
2021/12/03 06:45:07;;;;;;;11.30;4.93;;;4.90;99.90;;;;;;4992497;28;20740;-72
2021/12/03 06:47:34;;;;;;;12.18;4.38;;;4.80;99.90;;;;;;4982607;28;20656;-72
2021/12/03 06:50:03;;;;;;;11.75;5.28;;;4.90;99.90;;;;;;4983025;28;20107;-72
2021/12/03 06:52:32;;;;;;;5.90;4.55;;;4.90;99.90;;;;;;4988991;28;20569;-72
2021/12/03 06:55:02;;;;;;;9.65;4.80;;;4.90;99.90;;;;;;4989039;28;20109;-72
2021/12/03 06:57:29;;;;;;;19.30;5.60;;;5.00;99.90;;;;;;4996935;28;20880;-72
2021/12/03 06:59:56;;;;;;;9.77;4.57;;;5.00;99.90;;;;;;4989179;28;20466;-71
2021/12/03 07:02:23;;;;;;;11.38;4.20;;;5.00;99.90;;;;;;4991777;28;20049;-73
2021/12/03 07:04:50;;;;;;;10.10;4.70;;;5.10;99.90;;;;;;4983939;28;20047;-73
2021/12/03 07:07:17;;;;;;;13.18;4.53;;;5.10;99.90;;;;;;4998045;28;20046;-72
2021/12/03 07:09:44;;;;;;;14.10;4.25;;;5.20;99.90;;;;;;4986362;28;20050;-72
2021/12/03 07:12:13;;;;;;;6.82;3.72;;;5.20;99.90;;;;;;4986597;28;20050;-73
2021/12/03 07:14:40;;;;;;;8.02;3.90;;;5.30;99.90;;;;;;4983128;28;20043;-72
2021/12/03 07:17:07;;;;;;;7.32;3.63;;;5.40;99.90;;;;;;4986545;28;20050;-73
2021/12/03 07:19:34;;;;;;;6.57;3.85;;;5.40;99.90;;;;;;4996327;28;20055;-72
2021/12/03 07:22:01;;;;;;;9.90;3.85;;;5.40;99.90;;;;;;4986272;28;20124;-72
2021/12/03 07:24:28;;;;;;;10.32;3.92;;;5.40;99.90;;;;;;4987218;28;20750;-73
2021/12/03 07:26:55;;;;;;;6.88;4.40;;;5.50;99.90;;;;;;4989524;28;20058;-75
2021/12/03 07:29:22;;;;;;;10.15;4.07;;;5.50;99.90;;;;;;4979140;28;20151;-76
2021/12/03 07:31:49;;;;;;;8.13;4.55;;;5.60;99.90;;;;;;4996646;28;20042;-75
2021/12/03 07:34:16;;;;;;;7.65;3.78;;;5.60;99.90;;;;;;4978863;28;20499;-75
2021/12/03 07:36:43;;;;;;;6.72;3.80;;;5.70;99.90;;;;;;4978346;28;20113;-78
2021/12/03 07:39:10;;;;;;;10.27;3.63;;;5.70;99.90;;;;;;4988202;28;20159;-76
2021/12/03 07:41:40;;;;;;;13.38;4.40;;;5.70;99.90;;;;;;4989124;28;20578;-75
2021/12/03 07:44:08;;;;;;;7.25;3.70;;;5.70;99.90;;;;;;4993073;28;20054;-76
2021/12/03 07:46:35;;;;;;;5.30;3.22;;;5.70;99.90;;;;;;4997301;28;20054;-75
2021/12/03 07:49:03;;;;;;;7.95;3.72;;;5.80;99.90;;;;;;5002965;28;20051;-76
2021/12/03 07:51:33;;;;;;;8.57;3.38;;;5.80;99.90;;;;;;4990679;28;20057;-75
2021/12/03 07:54:00;;;;;;;7.05;3.42;;;5.80;99.90;;;;;;4989089;28;20050;-74
2021/12/03 07:56:27;;;;;;;10.63;3.58;;;5.80;99.90;;;;;;4992310;28;20050;-76
2021/12/03 07:58:54;;;;;;;7.25;3.10;;;5.90;99.90;;;;;;4992095;28;20113;-75
2021/12/03 08:01:21;;;;;;;13.40;3.42;;;5.90;99.90;;;;;;4985294;28;20105;-76
2021/12/03 08:03:48;;;;;;;7.32;3.22;;;5.90;99.90;;;;;;4990076;28;20046;-77
2021/12/03 08:06:16;;;;;;;6.55;2.95;;;5.90;99.90;;;;;;4991793;28;20473;-76
2021/12/03 08:08:43;;;;;;;9.73;3.40;;;5.90;99.90;;;;;;4993009;28;20556;-75
2021/12/03 08:11:09;;;;;;;7.88;3.40;;;6.00;99.90;;;;;;4991936;28;20093;-75
2021/12/03 08:13:36;;;;;;;7.85;3.17;;;6.00;99.90;;;;;;4995766;28;20043;-75
2021/12/03 08:16:04;;;;;;;9.52;3.00;;;6.00;99.90;;;;;;4993345;28;20046;-75
2021/12/03 08:18:31;;;;;;;5.03;2.65;;;6.10;99.90;;;;;;5002095;28;20047;-75
2021/12/03 08:20:58;;;;;;;7.97;3.20;;;6.10;99.90;;;;;;4980740;28;20046;-75
2021/12/03 08:23:26;;;;;;;8.82;3.97;;;6.20;99.90;;;;;;4995872;28;20101;-76
2021/12/03 08:25:53;;;;;;;9.70;3.88;;;6.20;99.90;;;;;;4995694;28;20326;-79
2021/12/03 08:28:20;;;;;;;9.02;5.25;;;6.20;99.90;;;;;;4989788;28;20726;-76
2021/12/03 08:30:48;;;;;;;10.85;4.82;;;6.10;99.90;;;;;;4990256;28;20046;-75
2021/12/03 08:33:16;;;;;;;8.95;3.60;;;6.10;99.90;;;;;;5005947;28;20047;-79
2021/12/03 08:35:43;;;;;;;35.97;22.02;;;6.20;99.90;;;;;;4995458;28;20042;-76
2021/12/03 08:38:10;;;;;;;18.13;9.25;;;6.20;99.90;;;;;;4989883;28;20415;-76
2021/12/03 08:40:57;;;;;;;18.75;10.25;;;6.30;99.90;;;;;;4995613;28;20140;-76
2021/12/03 08:43:24;;;;;;;25.70;13.63;;;6.30;99.90;;;;;;4995223;28;20058;-77
2021/12/03 08:45:54;;;;;;;8.98;5.95;;;6.50;99.90;;;;;;4992465;28;20074;-75
2021/12/03 08:48:23;;;;;;;4.65;3.10;;;6.50;99.90;;;;;;4990915;28;20062;-77
2021/12/03 08:52:21;;;;;;;9.57;4.20;;;6.50;99.90;;;;;;4990971;28;20153;-77
2021/12/03 08:56:36;;;;;;;12.52;5.60;;;6.60;99.90;;;;;;4992045;28;20522;-76
2021/12/03 08:59:04;;;;;;;12.32;4.93;;;6.80;99.90;;;;;;4982608;28;20055;-76
2021/12/03 09:01:31;;;;;;;3.97;1.83;;;6.90;99.90;;;;;;5006459;28;20503;-76
2021/12/03 09:03:59;;;;;;;5.85;3.70;;;7.00;99.90;;;;;;4994216;28;20510;-75
2021/12/03 09:06:26;;;;;;;6.78;2.90;;;7.00;99.90;;;;;;4993158;28;20057;-77
2021/12/03 09:08:53;;;;;;;4.90;2.60;;;7.10;99.90;;;;;;4995461;28;20724;-77
2021/12/03 09:11:22;;;;;;;3.90;2.10;;;7.10;99.90;;;;;;4994777;28;20658;-76
2021/12/03 09:13:51;;;;;;;7.30;2.75;;;7.10;99.90;;;;;;4993105;28;21211;-77
2021/12/03 09:16:20;;;;;;;4.95;1.58;;;7.20;99.90;;;;;;4990491;28;20102;-77
2021/12/03 09:18:49;;;;;;;5.95;2.70;;;7.20;99.90;;;;;;4990235;28;20057;-76
2021/12/03 09:21:23;;;;;;;4.40;1.85;;;7.20;99.90;;;;;;4981837;28;20043;-77
2021/12/03 09:26:22;;;;;;;4.32;1.95;;;7.20;99.90;;;;;;4995358;28;20051;-77
2021/12/03 09:28:57;;;;;;;2.28;1.50;;;7.20;99.90;;;;;;4989740;28;20081;-76
2021/12/03 09:31:24;;;;;;;3.30;2.10;;;7.30;99.90;;;;;;4993359;28;20058;-78
2021/12/03 09:33:51;;;;;;;6.88;1.77;;;7.30;99.90;;;;;;4993603;28;20101;-77
2021/12/03 09:36:18;;;;;;;11.43;6.95;;;7.30;99.90;;;;;;4989191;28;20117;-78
2021/12/03 09:38:45;;;;;;;6.93;2.90;;;7.30;99.90;;;;;;4992598;28;20042;-78
2021/12/03 09:41:18;;;;;;;11.52;4.75;;;7.30;99.90;;;;;;4993581;28;20050;-78
2021/12/03 09:43:49;;;;;;;5.30;1.90;;;7.40;99.90;;;;;;4992389;28;20108;-78
2021/12/03 09:46:20;;;;;;;5.88;1.95;;;7.50;99.90;;;;;;4981115;28;20043;-79
2021/12/03 09:51:21;;;;;;;3.17;2.17;;;7.60;99.90;;;;;;4977426;28;20043;-77
2021/12/03 09:56:42;;;;;;;2.67;1.75;;;7.60;99.90;;;;;;4984846;28;20568;-79
2021/12/03 10:15:20;;;;;;;3.50;2.30;;;8.00;99.90;;;;;;4989629;28;20110;-79
2021/12/03 10:18:40;;;;;;;3.55;2.67;;;8.20;99.90;;;;;;4982652;28;20120;-78
2021/12/03 10:21:05;;;;;;;6.57;2.65;;;8.20;99.90;;;;;;4974211;28;20510;-79
2021/12/03 11:04:11;;;;;;;5.97;2.95;;;8.70;99.90;;;;;;4987637;28;20046;-78
2021/12/03 11:31:43;;;;;;;4.07;2.70;;;9.50;99.90;;;;;;4988904;28;20046;-80
2021/12/03 11:48:02;;;;;;;6.32;3.75;;;10.00;99.90;;;;;;4986748;28;20058;-80
2021/12/03 12:39:13;;;;;;;7.18;4.13;;;10.80;99.90;;;;;;4980147;28;20086;-80
2021/12/03 12:44:35;;;;;;;4.72;3.45;;;10.90;99.90;;;;;;4979723;28;20050;-80
2021/12/03 13:23:13;;;;;;;6.85;3.50;;;11.40;99.90;;;;;;4981095;28;20049;-80
2021/12/03 14:15:11;;;;;;;7.65;4.40;;;11.70;99.90;;;;;;4995140;28;20506;-80
2021/12/03 14:53:32;;;;;;;22.83;3.08;;;11.50;99.90;;;;;;4992218;28;20050;-79
2021/12/03 14:55:52;;;;;;;30.95;2.53;;;11.50;99.90;;;;;;4993920;28;20053;-79
2021/12/03 14:58:21;;;;;;;17.83;1.75;;;11.60;99.90;;;;;;4991675;28;20050;-80
2021/12/03 15:01:11;;;;;;;32.00;2.38;;;11.60;99.90;;;;;;4992710;28;20134;-81
2021/12/03 15:06:45;;;;;;;23.63;2.17;;;11.60;99.90;;;;;;4978602;28;20397;-78
2021/12/03 15:09:19;;;;;;;19.15;2.58;;;11.60;99.90;;;;;;4989355;28;20050;-80
2021/12/03 15:12:10;;;;;;;21.27;2.15;;;11.60;99.90;;;;;;4989302;28;20694;-77
2021/12/03 15:33:20;;;;;;;32.90;3.53;;;11.50;99.90;;;;;;4988885;28;20063;-79
2021/12/03 16:08:14;;;;;;;31.52;3.47;;;11.30;99.90;;;;;;4990167;28;20050;-78
2021/12/03 16:21:54;;;;;;;31.92;3.35;;;11.40;99.90;;;;;;4977555;28;20054;-79
2021/12/03 16:46:21;;;;;;;28.58;2.88;;;11.50;99.90;;;;;;4985004;28;20047;-78
2021/12/03 16:54:11;;;;;;;25.00;3.65;;;11.60;99.90;;;;;;4980567;28;20483;-79
2021/12/03 16:56:45;;;;;;;24.20;2.83;;;11.50;99.90;;;;;;4992183;28;20051;-78
2021/12/03 16:59:13;;;;;;;29.25;2.80;;;11.50;99.90;;;;;;4984942;28;20078;-78
2021/12/03 17:01:51;;;;;;;24.40;2.45;;;11.50;99.90;;;;;;4994712;28;20049;-78
2021/12/03 17:12:41;;;;;;;20.63;1.90;;;11.40;99.90;;;;;;4976086;28;20118;-78
2021/12/03 18:00:24;;;;;;;7.40;2.05;;;11.40;99.90;;;;;;4977123;28;20047;-78
2021/12/03 18:02:54;;;;;;;9.00;2.27;;;11.50;99.90;;;;;;4974235;28;20113;-80
2021/12/03 18:08:25;;;;;;;11.30;3.00;;;11.50;99.90;;;;;;4981062;28;20057;-78
2021/12/03 18:43:58;;;;;;;6.43;2.45;;;11.80;99.90;;;;;;4977097;28;20531;-78
2021/12/03 18:56:55;;;;;;;4.75;1.80;;;11.80;99.90;;;;;;4974277;28;20046;-79
2021/12/03 18:59:27;;;;;;;5.30;1.80;;;11.80;99.90;;;;;;5000361;28;20051;-77
2021/12/03 19:01:54;;;;;;;8.70;1.75;;;11.80;99.90;;;;;;4992762;28;20097;-78
2021/12/03 19:04:33;;;;;;;16.00;2.30;;;11.80;99.90;;;;;;4981491;28;20082;-79
2021/12/03 19:07:07;;;;;;;4.57;2.15;;;11.80;99.90;;;;;;4982195;28;20050;-79
2021/12/03 19:09:40;;;;;;;7.03;2.53;;;11.80;99.90;;;;;;4985536;28;20043;-78
2021/12/03 19:12:12;;;;;;;6.95;1.90;;;11.80;99.90;;;;;;4977130;28;20082;-78
2021/12/03 19:14:46;;;;;;;6.75;2.25;;;11.80;99.90;;;;;;4982391;28;20046;-79
2021/12/03 19:17:13;;;;;;;9.75;2.33;;;11.80;99.90;;;;;;4986242;28;20510;-80
2021/12/03 19:19:44;;;;;;;11.60;1.90;;;11.80;99.90;;;;;;4981595;28;20054;-81
2021/12/03 19:22:12;;;;;;;9.40;1.98;;;11.80;99.90;;;;;;4979621;28;20469;-78
2021/12/03 19:24:39;;;;;;;7.40;2.50;;;11.80;99.90;;;;;;4979245;28;20712;-79
2021/12/03 19:27:08;;;;;;;7.00;2.20;;;11.80;99.90;;;;;;4997002;28;20050;-77
2021/12/03 19:29:36;;;;;;;10.55;2.50;;;11.80;99.90;;;;;;4984213;28;20087;-77
2021/12/03 19:32:04;;;;;;;6.30;2.25;;;11.80;99.90;;;;;;4973749;28;20055;-77
2021/12/03 19:34:31;;;;;;;9.38;2.28;;;11.80;99.90;;;;;;4991701;28;20108;-79
2021/12/03 19:36:58;;;;;;;9.88;2.20;;;11.80;99.90;;;;;;4992546;28;20128;-80
2021/12/03 19:39:26;;;;;;;14.43;2.45;;;11.80;99.90;;;;;;4989933;28;20399;-79
2021/12/03 19:44:36;;;;;;;12.25;2.58;;;11.80;99.90;;;;;;4976198;28;20055;-78
2021/12/03 19:47:03;;;;;;;10.95;2.85;;;11.90;99.90;;;;;;4982295;28;20082;-79
2021/12/03 19:52:05;;;;;;;7.38;2.20;;;11.80;99.90;;;;;;4976597;28;20054;-79
2021/12/03 19:54:32;;;;;;;13.55;3.15;;;11.80;99.90;;;;;;4975540;28;20127;-79
2021/12/03 19:56:59;;;;;;;9.55;2.10;;;11.80;99.90;;;;;;4986767;28;20104;-79
2021/12/03 19:59:26;;;;;;;11.35;2.38;;;11.80;99.90;;;;;;4990262;28;20604;-78
2021/12/03 20:01:53;;;;;;;10.27;2.45;;;11.80;99.90;;;;;;5001234;28;20051;-77
2021/12/03 20:04:20;;;;;;;8.13;1.92;;;11.80;99.90;;;;;;4988165;28;20579;-81
2021/12/03 20:06:47;;;;;;;10.73;1.92;;;11.70;99.90;;;;;;4990656;28;20166;-78
2021/12/03 20:09:30;;;;;;;14.43;2.63;;;11.70;99.90;;;;;;5002835;28;20105;-79
2021/12/03 20:12:05;;;;;;;17.15;2.95;;;11.70;99.90;;;;;;4996194;28;20058;-78
2021/12/03 20:14:32;;;;;;;14.05;2.33;;;11.70;99.90;;;;;;4992819;28;20038;-80
2021/12/03 20:17:07;;;;;;;11.52;2.53;;;11.70;99.90;;;;;;4992075;28;20051;-80
2021/12/03 20:19:38;;;;;;;13.95;2.42;;;11.60;99.90;;;;;;4993119;28;20046;-78
2021/12/03 20:25:10;;;;;;;11.55;2.25;;;11.60;99.90;;;;;;4996573;28;20042;-80
2021/12/03 20:27:44;;;;;;;18.75;2.53;;;11.50;99.90;;;;;;4987375;28;20057;-80
2021/12/03 20:33:42;;;;;;;13.57;2.13;;;11.50;99.90;;;;;;4977060;28;20074;-78
2021/12/03 20:38:35;;;;;;;21.95;2.85;;;11.40;99.90;;;;;;4941404;28;20075;-77
2021/12/03 20:41:08;;;;;;;15.20;2.60;;;11.30;99.90;;;;;;4992737;28;21003;-79
2021/12/03 20:43:58;;;;;;;25.02;3.00;;;11.30;99.90;;;;;;4994765;28;20050;-80
2021/12/03 20:46:41;;;;;;;22.02;2.67;;;11.30;99.90;;;;;;4994939;28;20133;-78
2021/12/03 20:49:26;;;;;;;24.80;2.88;;;11.40;99.90;;;;;;4993293;28;20518;-77
2021/12/03 20:54:29;;;;;;;18.95;1.95;;;11.30;99.90;;;;;;4981038;28;20113;-79
2021/12/03 21:08:06;;;;;;;17.23;2.15;;;11.40;99.90;;;;;;4985788;28;20047;-80
2021/12/03 21:10:53;;;;;;;22.55;2.72;;;11.30;99.90;;;;;;4994787;28;20109;-81
2021/12/03 21:13:32;;;;;;;15.50;2.58;;;11.30;99.90;;;;;;4988937;28;20062;-80
2021/12/03 21:16:13;;;;;;;22.25;2.72;;;11.30;99.90;;;;;;4995074;28;20052;-80
2021/12/03 21:21:18;;;;;;;20.25;2.25;;;11.30;99.90;;;;;;4985169;28;20050;-81